Time;durP1;ratioP1;P1;durP2;ratioP2;P2;SDS_P1;SDS_P2;PMS_P1;PMS_P2;Temp;Humidity;BMP_temperature;BMP_pressure;BME280_temperature;BME280_humidity;BME280_pressure;Samples;Min_cycle;Max_cycle;Signal;HPM_P1;HPM_P2
2022/11/15 00:00:06;;;;;;;20.67;9.50;;;9.00;99.90;;;;;;5090877;28;20040;-88
2022/11/15 00:02:32;;;;;;;16.23;9.40;;;9.00;99.90;;;;;;5073076;28;20035;-88
2022/11/15 00:04:57;;;;;;;15.93;9.40;;;9.00;99.90;;;;;;5091572;28;20039;-88
2022/11/15 00:07:23;;;;;;;20.35;9.75;;;9.00;99.90;;;;;;5091723;28;20039;-89
2022/11/15 00:09:48;;;;;;;17.10;9.20;;;9.00;99.90;;;;;;5091747;28;20035;-88
2022/11/15 00:12:14;;;;;;;16.30;9.95;;;9.00;99.90;;;;;;5074597;28;20036;-88
2022/11/15 00:14:39;;;;;;;20.10;10.05;;;9.00;99.90;;;;;;5091600;28;20036;-88
2022/11/15 00:17:05;;;;;;;18.58;9.93;;;9.00;99.90;;;;;;5074821;28;20062;-88
2022/11/15 00:19:30;;;;;;;17.50;9.57;;;9.00;99.90;;;;;;5074747;28;20420;-88
2022/11/15 00:21:56;;;;;;;17.08;9.23;;;9.00;99.90;;;;;;5091282;28;20092;-88
2022/11/15 00:24:22;;;;;;;16.48;9.43;;;9.00;99.90;;;;;;5090848;28;20047;-88
2022/11/15 00:26:47;;;;;;;17.60;9.48;;;9.00;99.90;;;;;;5091560;28;20032;-88
2022/11/15 00:29:13;;;;;;;18.65;9.90;;;9.00;99.90;;;;;;5091480;28;20048;-89
2022/11/15 00:31:38;;;;;;;17.33;9.20;;;9.10;99.90;;;;;;5091448;28;20036;-88
2022/11/15 00:34:04;;;;;;;20.92;10.75;;;9.10;99.90;;;;;;5074295;28;20061;-88
2022/11/15 00:36:32;;;;;;;19.98;9.77;;;9.10;99.90;;;;;;5092537;28;20169;-88
2022/11/15 00:38:58;;;;;;;17.92;10.07;;;9.10;99.90;;;;;;5091243;28;20552;-88
2022/11/15 00:41:23;;;;;;;20.02;9.25;;;9.10;99.90;;;;;;5091103;28;20127;-88
2022/11/15 00:43:49;;;;;;;18.67;10.40;;;9.10;99.90;;;;;;5073941;28;20406;-88
2022/11/15 00:46:14;;;;;;;18.63;10.00;;;9.10;99.90;;;;;;5091235;28;20401;-88
2022/11/15 00:48:40;;;;;;;19.33;10.35;;;9.00;99.90;;;;;;5091142;28;20036;-88
2022/11/15 00:51:05;;;;;;;17.17;9.57;;;9.10;99.90;;;;;;5091388;28;20404;-88
2022/11/15 00:53:31;;;;;;;21.60;10.07;;;9.00;99.90;;;;;;5090618;28;20497;-88
2022/11/15 00:55:56;;;;;;;17.17;10.00;;;9.10;99.90;;;;;;5090815;28;20044;-88
2022/11/15 00:58:22;;;;;;;19.70;10.80;;;9.10;99.90;;;;;;5074203;28;20443;-88
2022/11/15 01:00:48;;;;;;;18.05;9.70;;;9.10;99.90;;;;;;5091165;28;20497;-88
2022/11/15 01:03:13;;;;;;;19.00;10.35;;;9.10;99.90;;;;;;5090366;28;20570;-88
2022/11/15 01:05:40;;;;;;;20.52;10.55;;;9.10;99.90;;;;;;5090800;28;20040;-88
2022/11/15 01:08:05;;;;;;;19.25;9.70;;;9.10;99.90;;;;;;5090930;28;20036;-88
2022/11/15 01:10:31;;;;;;;18.92;10.52;;;9.10;99.90;;;;;;5090856;28;20042;-88
2022/11/15 01:12:57;;;;;;;19.65;10.25;;;9.10;99.90;;;;;;5090341;28;20524;-89
2022/11/15 01:15:22;;;;;;;17.45;9.32;;;9.10;99.90;;;;;;5090564;28;20028;-88
2022/11/15 01:17:48;;;;;;;16.48;9.65;;;9.10;99.90;;;;;;5090681;28;20040;-88
2022/11/15 01:20:13;;;;;;;19.92;10.25;;;9.10;99.90;;;;;;5090848;28;20032;-88
2022/11/15 01:22:39;;;;;;;19.23;10.25;;;9.10;99.90;;;;;;5090423;28;20043;-88
2022/11/15 01:25:05;;;;;;;18.60;9.98;;;9.10;99.90;;;;;;5090325;28;20040;-88
2022/11/15 01:27:30;;;;;;;17.80;9.77;;;9.10;99.90;;;;;;5090498;28;20042;-88
2022/11/15 01:29:56;;;;;;;18.13;9.23;;;9.10;99.90;;;;;;5090444;28;20036;-88
2022/11/15 01:32:21;;;;;;;17.10;9.55;;;9.10;99.90;;;;;;5089079;28;20044;-88
2022/11/15 01:34:47;;;;;;;17.92;10.15;;;9.20;99.90;;;;;;5073783;28;20043;-88
2022/11/15 01:37:12;;;;;;;22.73;11.48;;;9.20;99.90;;;;;;5090257;28;20036;-87
2022/11/15 01:39:38;;;;;;;19.88;10.32;;;9.20;99.90;;;;;;5090312;28;20035;-88
2022/11/15 01:42:03;;;;;;;18.08;9.93;;;9.20;99.90;;;;;;5090285;28;20501;-88
2022/11/15 01:44:43;;;;;;;17.88;9.88;;;9.20;99.90;;;;;;5073281;28;20036;-88
2022/11/15 01:47:22;;;;;;;20.50;10.32;;;9.20;99.90;;;;;;5090156;28;20044;-88
2022/11/15 01:50:11;;;;;;;18.80;9.75;;;9.20;99.90;;;;;;5090282;28;20524;-88
2022/11/15 01:52:39;;;;;;;19.17;9.82;;;9.20;99.90;;;;;;5072985;28;20058;-88
2022/11/15 01:55:11;;;;;;;20.73;10.98;;;9.20;99.90;;;;;;5090403;28;20040;-88
2022/11/15 01:57:37;;;;;;;19.30;10.20;;;9.20;99.90;;;;;;5073324;28;20074;-88
2022/11/15 02:00:05;;;;;;;19.35;9.23;;;9.30;99.90;;;;;;5090076;28;20028;-88
2022/11/15 02:02:31;;;;;;;21.67;10.52;;;9.30;99.90;;;;;;5089473;28;20035;-88
2022/11/15 02:04:56;;;;;;;24.25;11.00;;;9.30;99.90;;;;;;5090323;28;20568;-88
2022/11/15 02:07:22;;;;;;;19.05;9.98;;;9.30;99.90;;;;;;5089960;28;20529;-88
2022/11/15 02:09:48;;;;;;;22.85;11.60;;;9.30;99.90;;;;;;5073529;28;20123;-88
2022/11/15 02:12:17;;;;;;;23.88;11.38;;;9.30;99.90;;;;;;5072862;28;20115;-89
2022/11/15 02:14:46;;;;;;;26.17;12.65;;;9.30;99.90;;;;;;5089932;28;20035;-88
2022/11/15 02:17:20;;;;;;;24.38;11.80;;;9.30;99.90;;;;;;5089998;28;20039;-88
2022/11/15 02:20:00;;;;;;;22.20;11.52;;;9.30;99.90;;;;;;5089854;28;20040;-88
2022/11/15 02:22:57;;;;;;;28.60;11.88;;;9.30;99.90;;;;;;5072723;28;20073;-89
2022/11/15 02:25:39;;;;;;;22.50;11.63;;;9.30;99.90;;;;;;5089653;28;20127;-88
2022/11/15 02:28:27;;;;;;;24.33;10.77;;;9.30;99.90;;;;;;5090230;28;20067;-88
2022/11/15 02:31:05;;;;;;;27.42;12.75;;;9.30;99.90;;;;;;5072865;28;20111;-88
2022/11/15 02:33:51;;;;;;;26.33;11.60;;;9.30;99.90;;;;;;5089607;28;20039;-88
2022/11/15 02:36:34;;;;;;;29.95;13.45;;;9.30;99.90;;;;;;5089962;28;20530;-88
2022/11/15 02:39:26;;;;;;;24.00;13.52;;;9.30;99.90;;;;;;5089820;28;20450;-89
2022/11/15 02:41:58;;;;;;;22.02;11.45;;;9.40;99.90;;;;;;5072774;28;20047;-88
2022/11/15 02:44:35;;;;;;;24.48;11.73;;;9.40;99.90;;;;;;5091578;28;20046;-88
2022/11/15 02:47:14;;;;;;;24.33;11.27;;;9.40;99.90;;;;;;5093426;28;20040;-88
2022/11/15 02:49:43;;;;;;;23.23;12.10;;;9.40;99.90;;;;;;5093472;28;20501;-88
2022/11/15 02:52:09;;;;;;;33.50;12.85;;;9.40;99.90;;;;;;5093122;28;20059;-89
2022/11/15 02:54:35;;;;;;;25.63;12.65;;;9.40;99.90;;;;;;5076189;28;20044;-88
2022/11/15 02:57:10;;;;;;;24.58;12.23;;;9.50;99.90;;;;;;5093259;28;20101;-88
2022/11/15 02:59:42;;;;;;;23.55;13.10;;;9.40;99.90;;;;;;5093307;28;20048;-88
2022/11/15 03:02:31;;;;;;;27.40;14.02;;;9.50;99.90;;;;;;5076259;28;20039;-88
2022/11/15 03:04:58;;;;;;;27.98;13.70;;;9.50;99.90;;;;;;5092964;28;20040;-88
2022/11/15 03:07:41;;;;;;;27.25;13.27;;;9.50;99.90;;;;;;5075921;28;20382;-88
2022/11/15 03:10:13;;;;;;;26.42;12.35;;;9.60;99.90;;;;;;5093401;28;20230;-88
2022/11/15 03:12:51;;;;;;;26.83;13.03;;;9.60;99.90;;;;;;5092892;28;20044;-88
2022/11/15 03:15:26;;;;;;;25.38;13.57;;;9.60;99.90;;;;;;5092794;28;20278;-88
2022/11/15 03:18:01;;;;;;;24.25;13.25;;;9.60;99.90;;;;;;5076020;28;20032;-88
2022/11/15 03:20:28;;;;;;;23.30;12.70;;;9.60;99.90;;;;;;5075933;28;20043;-88
2022/11/15 03:22:58;;;;;;;32.92;14.35;;;9.70;99.90;;;;;;5075593;28;20040;-88
2022/11/15 03:25:26;;;;;;;27.13;13.35;;;9.70;99.90;;;;;;5092939;28;20070;-88
2022/11/15 03:27:57;;;;;;;24.88;14.05;;;9.70;99.90;;;;;;5092590;28;20513;-88
2022/11/15 03:30:23;;;;;;;29.52;13.60;;;9.70;99.90;;;;;;5092319;28;20405;-88
2022/11/15 03:32:57;;;;;;;28.73;13.52;;;9.70;99.90;;;;;;5092174;28;20032;-89
2022/11/15 03:35:30;;;;;;;22.60;12.55;;;9.70;99.90;;;;;;5075589;28;20036;-88
2022/11/15 03:38:16;;;;;;;27.27;14.68;;;9.80;99.90;;;;;;5075751;28;20066;-88
2022/11/15 03:41:08;;;;;;;23.73;13.27;;;9.80;99.90;;;;;;5075676;28;20485;-88
2022/11/15 03:43:59;;;;;;;24.05;14.32;;;9.80;99.90;;;;;;5092401;28;20482;-88
2022/11/15 03:46:33;;;;;;;29.17;14.82;;;9.80;99.90;;;;;;5092341;28;20127;-87
2022/11/15 03:49:19;;;;;;;30.38;16.13;;;9.80;99.90;;;;;;5092638;28;20461;-89
2022/11/15 03:51:45;;;;;;;30.95;16.52;;;9.90;99.90;;;;;;5092464;28;20043;-89
2022/11/15 03:54:12;;;;;;;32.20;16.30;;;9.90;99.90;;;;;;5075022;28;20035;-89
2022/11/15 03:56:38;;;;;;;25.63;15.52;;;9.90;99.90;;;;;;5091079;28;20119;-88
2022/11/15 03:59:03;;;;;;;33.20;16.58;;;9.90;99.90;;;;;;5092199;28;20127;-88
2022/11/15 04:01:29;;;;;;;30.67;15.82;;;10.00;99.90;;;;;;5091861;28;20036;-88
2022/11/15 04:03:54;;;;;;;29.45;17.25;;;10.00;99.90;;;;;;5091744;28;20101;-88
2022/11/15 04:06:20;;;;;;;34.53;17.73;;;10.00;99.90;;;;;;5074925;28;20040;-88
2022/11/15 04:08:45;;;;;;;34.10;16.33;;;10.00;99.90;;;;;;5075197;28;20078;-88
2022/11/15 04:11:11;;;;;;;30.50;16.42;;;10.10;99.90;;;;;;5075088;28;20040;-88
2022/11/15 04:13:36;;;;;;;32.72;18.30;;;10.10;99.90;;;;;;5074193;28;20039;-88
2022/11/15 04:16:02;;;;;;;33.63;17.55;;;10.10;99.90;;;;;;5074854;28;20475;-88
2022/11/15 04:18:28;;;;;;;35.50;17.52;;;10.10;99.90;;;;;;5091565;28;20440;-88
2022/11/15 04:26:22;;;;;;;29.33;15.95;;;10.20;99.90;;;;;;5091308;28;20048;-89
2022/11/15 04:31:33;;;;;;;38.17;18.85;;;10.30;99.90;;;;;;5091410;28;20048;-89
2022/11/15 04:33:59;;;;;;;31.63;16.98;;;10.30;99.90;;;;;;5071856;28;20036;-89
2022/11/15 04:39:08;;;;;;;27.38;16.50;;;10.30;99.90;;;;;;5090805;28;20501;-89
2022/11/15 04:41:34;;;;;;;32.58;16.75;;;10.40;99.90;;;;;;5074740;28;20048;-89
2022/11/15 04:43:59;;;;;;;31.33;16.20;;;10.40;99.90;;;;;;5074033;28;20036;-89
2022/11/15 04:46:25;;;;;;;30.60;15.63;;;10.40;99.90;;;;;;5074078;28;20127;-89
2022/11/15 04:48:52;;;;;;;32.90;17.20;;;10.50;99.90;;;;;;5074583;28;20043;-88
2022/11/15 04:51:18;;;;;;;29.10;16.00;;;10.50;99.90;;;;;;5074159;28;20036;-89
2022/11/15 04:53:43;;;;;;;32.90;16.58;;;10.50;99.90;;;;;;5090682;28;20047;-88
2022/11/15 04:56:09;;;;;;;29.75;17.40;;;10.50;99.90;;;;;;5091020;28;20039;-88
2022/11/15 04:58:35;;;;;;;34.75;16.30;;;10.50;99.90;;;;;;5074074;28;20398;-88
2022/11/15 05:01:09;;;;;;;30.55;16.42;;;10.60;99.90;;;;;;5074052;28;20058;-89
2022/11/15 05:06:19;;;;;;;24.73;15.18;;;10.60;99.90;;;;;;5090458;28;20040;-88
2022/11/15 05:08:44;;;;;;;27.73;14.70;;;10.60;99.90;;;;;;5073995;28;20378;-88
2022/11/15 05:11:10;;;;;;;29.10;15.13;;;10.70;99.90;;;;;;5090792;28;20032;-88
2022/11/15 05:13:35;;;;;;;33.95;15.70;;;10.70;99.90;;;;;;5073811;28;20036;-88
2022/11/15 05:16:01;;;;;;;25.23;13.60;;;10.70;99.90;;;;;;5090499;28;20040;-88
2022/11/15 05:18:27;;;;;;;24.48;15.07;;;10.70;99.90;;;;;;5073527;28;20039;-88
2022/11/15 05:20:52;;;;;;;28.23;15.00;;;10.80;99.90;;;;;;5074141;28;20043;-88
2022/11/15 05:23:18;;;;;;;24.13;13.63;;;10.80;99.90;;;;;;5073401;28;20044;-88
2022/11/15 05:25:43;;;;;;;24.88;14.38;;;10.80;99.90;;;;;;5073599;28;20047;-88
2022/11/15 05:28:09;;;;;;;27.77;14.63;;;10.80;99.90;;;;;;5073903;28;20047;-88
2022/11/15 05:30:34;;;;;;;29.30;15.10;;;10.80;99.90;;;;;;5073513;28;20039;-89
2022/11/15 05:33:00;;;;;;;24.88;14.07;;;10.90;99.90;;;;;;5089976;28;20046;-88
2022/11/15 05:35:41;;;;;;;25.48;13.95;;;10.90;99.90;;;;;;5090400;28;20035;-89
2022/11/15 05:38:07;;;;;;;27.10;13.95;;;10.90;99.90;;;;;;5073871;28;20062;-89
2022/11/15 05:40:33;;;;;;;23.05;13.57;;;10.90;99.90;;;;;;5090292;28;20509;-88
2022/11/15 05:43:01;;;;;;;25.58;13.13;;;11.00;99.90;;;;;;5090359;28;20067;-89
2022/11/15 05:45:28;;;;;;;26.42;13.45;;;11.00;99.90;;;;;;5089962;28;20040;-88
2022/11/15 05:47:56;;;;;;;22.30;13.10;;;11.00;99.90;;;;;;5090529;28;20039;-88
2022/11/15 05:50:22;;;;;;;22.88;13.90;;;11.10;99.90;;;;;;5090133;28;20413;-88
2022/11/15 05:52:48;;;;;;;24.08;13.80;;;11.10;99.90;;;;;;5089820;28;20383;-88
2022/11/15 05:55:14;;;;;;;25.13;13.73;;;11.20;99.90;;;;;;5073344;28;20066;-89
2022/11/15 05:57:40;;;;;;;25.10;14.52;;;11.20;99.90;;;;;;5073425;28;20047;-88
2022/11/15 06:00:07;;;;;;;28.55;16.00;;;11.20;99.90;;;;;;5073002;28;20032;-88
2022/11/15 06:02:33;;;;;;;22.50;12.55;;;11.30;99.90;;;;;;5089825;28;20055;-88
2022/11/15 06:04:59;;;;;;;22.52;12.55;;;11.30;99.90;;;;;;5073548;28;20036;-88
2022/11/15 06:07:24;;;;;;;21.02;12.07;;;11.30;99.90;;;;;;5089966;28;20051;-89
2022/11/15 06:09:50;;;;;;;23.20;12.80;;;11.40;99.90;;;;;;5090118;28;20113;-88
2022/11/15 06:12:15;;;;;;;21.45;11.65;;;11.40;99.90;;;;;;5072740;28;20170;-88
2022/11/15 06:14:41;;;;;;;23.70;14.35;;;11.40;99.90;;;;;;5089780;28;20036;-88
2022/11/15 06:17:06;;;;;;;21.25;12.38;;;11.40;99.90;;;;;;5090237;28;20043;-88
2022/11/15 06:19:32;;;;;;;25.30;12.65;;;11.50;99.90;;;;;;5092601;28;20047;-89
2022/11/15 06:22:01;;;;;;;23.17;12.88;;;11.50;99.90;;;;;;5093757;28;20453;-88
2022/11/15 06:24:27;;;;;;;17.40;11.38;;;11.50;99.90;;;;;;5093811;28;20089;-88
2022/11/15 06:26:52;;;;;;;23.55;13.23;;;11.50;99.90;;;;;;5076964;28;20040;-88
2022/11/15 06:29:18;;;;;;;19.38;11.68;;;11.50;99.90;;;;;;5094065;28;20042;-89
2022/11/15 06:31:44;;;;;;;23.58;12.13;;;11.60;99.90;;;;;;5076857;28;20558;-88
2022/11/15 06:34:09;;;;;;;24.92;11.90;;;11.60;99.90;;;;;;5076512;28;20044;-88
2022/11/15 06:36:36;;;;;;;20.92;12.68;;;11.60;99.90;;;;;;5094973;28;20044;-88
2022/11/15 06:39:05;;;;;;;22.20;12.40;;;11.70;99.90;;;;;;5093640;28;20051;-88
2022/11/15 06:41:33;;;;;;;24.90;13.32;;;11.70;99.90;;;;;;5076951;28;20036;-88
2022/11/15 06:43:59;;;;;;;21.10;12.55;;;11.70;99.90;;;;;;5076498;28;20055;-89
2022/11/15 06:46:24;;;;;;;20.15;11.93;;;11.70;99.90;;;;;;5093400;28;20044;-88
2022/11/15 06:48:53;;;;;;;20.35;11.48;;;11.70;99.90;;;;;;5093447;28;20043;-89
2022/11/15 06:51:20;;;;;;;20.35;10.95;;;11.80;99.90;;;;;;5093406;28;20032;-89
2022/11/15 06:53:45;;;;;;;19.50;11.48;;;11.80;99.90;;;;;;5093094;28;20028;-88
2022/11/15 06:56:11;;;;;;;24.75;20.67;;;11.80;99.90;;;;;;5076201;28;20081;-89
2022/11/15 06:58:37;;;;;;;24.25;12.05;;;11.80;99.90;;;;;;5093214;28;20116;-88
2022/11/15 07:01:07;;;;;;;21.00;12.02;;;11.90;99.90;;;;;;5093167;28;20515;-88
2022/11/15 07:03:38;;;;;;;19.75;12.68;;;11.90;99.90;;;;;;5093296;28;20497;-89
2022/11/15 07:06:04;;;;;;;20.48;12.68;;;11.90;99.90;;;;;;5092933;28;20121;-88
2022/11/15 07:08:31;;;;;;;25.02;20.25;;;11.90;99.90;;;;;;5093309;28;20036;-88
2022/11/15 07:11:01;;;;;;;21.25;12.10;;;11.90;99.90;;;;;;5076391;28;20431;-89
2022/11/15 07:13:29;;;;;;;21.35;11.35;;;12.00;99.90;;;;;;5091609;28;20115;-88
2022/11/15 07:15:55;;;;;;;22.85;20.45;;;12.00;99.90;;;;;;5092667;28;20496;-89
2022/11/15 07:18:20;;;;;;;21.27;12.18;;;12.00;99.90;;;;;;5075982;28;20067;-89
2022/11/15 07:20:46;;;;;;;19.98;11.38;;;12.00;99.90;;;;;;5092840;28;20075;-88
2022/11/15 07:23:11;;;;;;;21.17;11.20;;;12.00;99.90;;;;;;5092421;28;20036;-89
2022/11/15 07:25:37;;;;;;;24.30;11.90;;;12.00;99.90;;;;;;5092564;28;20048;-89
2022/11/15 07:28:03;;;;;;;21.52;11.65;;;12.00;99.90;;;;;;5092325;28;20093;-88
2022/11/15 07:30:29;;;;;;;20.60;12.85;;;12.00;99.90;;;;;;5090690;28;20039;-89
2022/11/15 07:32:56;;;;;;;23.77;19.73;;;12.10;99.90;;;;;;5092690;28;20042;-89
2022/11/15 07:35:22;;;;;;;18.15;11.25;;;12.10;99.90;;;;;;5092345;28;20497;-89
2022/11/15 07:37:59;;;;;;;17.83;10.50;;;12.20;99.90;;;;;;5092346;28;20551;-89
2022/11/15 07:40:27;;;;;;;19.23;11.10;;;12.10;99.90;;;;;;5092185;28;20061;-89
2022/11/15 07:42:58;;;;;;;22.48;19.92;;;12.20;99.90;;;;;;5075355;28;20059;-89
2022/11/15 07:45:26;;;;;;;20.88;12.95;;;12.20;99.90;;;;;;5092400;28;20051;-89
2022/11/15 07:47:52;;;;;;;19.95;11.77;;;12.30;99.90;;;;;;5075873;28;20048;-88
2022/11/15 07:50:18;;;;;;;22.25;12.52;;;12.20;99.90;;;;;;5074838;28;20044;-89
2022/11/15 07:52:44;;;;;;;21.20;12.70;;;12.20;99.90;;;;;;5091765;28;20044;-89
2022/11/15 07:55:09;;;;;;;19.45;12.10;;;12.20;99.90;;;;;;5090221;28;20036;-89
2022/11/15 07:57:35;;;;;;;19.55;12.65;;;12.20;99.90;;;;;;5091759;28;20032;-88
2022/11/15 08:00:01;;;;;;;22.45;12.55;;;12.20;99.90;;;;;;5074456;28;20409;-89
2022/11/15 08:02:27;;;;;;;19.85;13.13;;;12.20;99.90;;;;;;5074017;28;20058;-89
2022/11/15 08:04:52;;;;;;;25.73;22.33;;;12.20;99.90;;;;;;5091093;28;20040;-89
2022/11/15 08:07:18;;;;;;;19.80;12.75;;;12.30;99.90;;;;;;5074113;28;20044;-89
2022/11/15 08:09:44;;;;;;;18.42;11.65;;;12.30;99.90;;;;;;5073548;28;20044;-89
2022/11/15 08:12:09;;;;;;;20.67;12.55;;;12.30;99.90;;;;;;5090726;28;20123;-89
2022/11/15 08:14:35;;;;;;;22.63;20.23;;;12.30;99.90;;;;;;5090999;28;20170;-89
2022/11/15 08:17:01;;;;;;;18.65;11.65;;;12.30;99.90;;;;;;5074350;28;20073;-88
2022/11/15 08:19:27;;;;;;;21.77;12.45;;;12.40;99.90;;;;;;5091155;28;20121;-89
2022/11/15 08:21:52;;;;;;;19.90;12.30;;;12.40;99.90;;;;;;5091198;28;20040;-89
2022/11/15 08:24:18;;;;;;;18.98;12.02;;;12.40;99.90;;;;;;5073541;28;20455;-89
2022/11/15 08:26:44;;;;;;;18.70;12.40;;;12.40;99.90;;;;;;5074276;28;20078;-89
2022/11/15 08:29:09;;;;;;;22.00;19.80;;;12.40;99.90;;;;;;5091201;28;20067;-89
2022/11/15 08:31:36;;;;;;;17.95;11.02;;;12.50;99.90;;;;;;5091091;28;20405;-89
2022/11/15 08:34:02;;;;;;;19.67;10.73;;;12.50;99.90;;;;;;5090496;28;20471;-89
2022/11/15 08:36:28;;;;;;;16.85;11.60;;;12.40;99.90;;;;;;5091156;28;20043;-88
2022/11/15 08:38:53;;;;;;;22.35;19.52;;;12.40;99.90;;;;;;5091080;28;20175;-89
2022/11/15 08:41:32;;;;;;;18.20;12.23;;;12.50;99.90;;;;;;5073521;28;20127;-89
2022/11/15 08:43:58;;;;;;;15.43;10.30;;;12.50;99.90;;;;;;5073456;28;20078;-89
2022/11/15 08:46:23;;;;;;;16.08;10.45;;;12.50;99.90;;;;;;5090564;28;20075;-89
2022/11/15 08:48:49;;;;;;;15.68;10.25;;;12.50;99.90;;;;;;5090445;28;20054;-89
2022/11/15 08:51:15;;;;;;;18.95;17.00;;;12.50;99.90;;;;;;5090663;28;20044;-89
2022/11/15 08:53:40;;;;;;;16.63;10.55;;;12.60;99.90;;;;;;5090629;28;20044;-89
2022/11/15 08:56:11;;;;;;;16.63;9.80;;;12.60;99.90;;;;;;5100980;28;20077;-89
2022/11/15 08:58:37;;;;;;;16.17;9.77;;;12.50;99.90;;;;;;5110087;28;20138;-89
2022/11/15 09:01:04;;;;;;;16.25;9.98;;;12.50;99.90;;;;;;5107290;28;20036;-89
2022/11/15 09:03:30;;;;;;;14.07;9.80;;;12.50;99.90;;;;;;5092148;28;20043;-88
2022/11/15 09:06:00;;;;;;;16.45;10.30;;;12.60;99.90;;;;;;5092676;28;20052;-88
2022/11/15 09:08:30;;;;;;;14.55;10.45;;;12.60;99.90;;;;;;5108864;28;20036;-88
2022/11/15 09:10:55;;;;;;;14.57;10.27;;;12.60;99.90;;;;;;5092690;28;20046;-88
2022/11/15 09:13:21;;;;;;;19.08;17.17;;;12.60;99.90;;;;;;5108998;28;20039;-89
2022/11/15 09:15:47;;;;;;;14.18;9.43;;;12.70;99.90;;;;;;5109571;28;20036;-88
2022/11/15 09:18:12;;;;;;;14.57;10.38;;;12.70;99.90;;;;;;5108893;28;20035;-88
2022/11/15 09:20:38;;;;;;;14.93;10.15;;;12.70;99.90;;;;;;5092798;28;20032;-89
2022/11/15 09:23:04;;;;;;;20.00;18.20;;;12.70;99.90;;;;;;5109072;28;20036;-89
2022/11/15 09:25:30;;;;;;;19.42;17.55;;;12.80;99.90;;;;;;5092455;28;20123;-89
2022/11/15 09:27:56;;;;;;;14.95;10.98;;;12.80;99.90;;;;;;5092317;28;20497;-88
2022/11/15 09:30:23;;;;;;;14.95;10.00;;;12.80;99.90;;;;;;5091211;28;20039;-88
2022/11/15 09:32:48;;;;;;;13.90;10.25;;;12.80;99.90;;;;;;5109473;28;20469;-88
2022/11/15 09:35:14;;;;;;;16.45;11.27;;;12.80;99.90;;;;;;5109719;28;20115;-88
2022/11/15 09:37:40;;;;;;;21.15;19.08;;;12.80;99.90;;;;;;5110387;28;20462;-88
2022/11/15 09:40:09;;;;;;;20.00;12.25;;;12.80;99.90;;;;;;5092291;28;20096;-88
2022/11/15 09:42:59;;;;;;;20.30;18.40;;;12.80;99.90;;;;;;5109783;28;20138;-88
2022/11/15 09:45:36;;;;;;;20.38;18.33;;;12.90;99.90;;;;;;5092616;28;20043;-88
2022/11/15 09:48:14;;;;;;;16.33;10.52;;;12.90;99.90;;;;;;5092489;28;20584;-88
2022/11/15 09:50:43;;;;;;;15.27;10.77;;;12.90;99.90;;;;;;5091388;28;20043;-88
2022/11/15 09:53:12;;;;;;;18.25;11.70;;;12.80;99.90;;;;;;5071099;28;20035;-88
2022/11/15 09:55:53;;;;;;;23.92;21.63;;;12.80;99.90;;;;;;5089617;28;20089;-88
2022/11/15 09:58:46;;;;;;;18.08;13.60;;;12.90;99.90;;;;;;5108919;28;20382;-87
2022/11/15 10:01:22;;;;;;;20.23;13.68;;;12.90;99.90;;;;;;5093114;28;20096;-88
2022/11/15 10:03:48;;;;;;;18.88;13.13;;;12.80;99.90;;;;;;5109738;28;20119;-88
2022/11/15 10:06:23;;;;;;;24.52;22.30;;;12.80;99.90;;;;;;5110067;28;20122;-88
2022/11/15 10:09:21;;;;;;;18.17;13.70;;;12.90;99.90;;;;;;5108577;28;20114;-88
2022/11/15 10:11:47;;;;;;;15.90;11.35;;;12.80;99.90;;;;;;5108887;28;20039;-88
2022/11/15 10:14:20;;;;;;;17.60;10.55;;;12.80;99.90;;;;;;5091922;28;20031;-88
2022/11/15 10:17:21;;;;;;;19.38;17.48;;;12.80;99.90;;;;;;5092795;28;20073;-87
2022/11/15 10:19:58;;;;;;;14.68;10.85;;;12.90;99.90;;;;;;5108845;28;20552;-87
2022/11/15 10:22:35;;;;;;;15.05;9.70;;;12.80;99.90;;;;;;5108576;28;20046;-88
2022/11/15 10:25:09;;;;;;;15.13;10.02;;;12.80;99.90;;;;;;5109273;28;20088;-88
2022/11/15 10:27:35;;;;;;;13.98;10.18;;;12.80;99.90;;;;;;5093691;28;20453;-87
2022/11/15 10:30:03;;;;;;;18.38;16.58;;;12.90;99.90;;;;;;5108701;28;20103;-88
2022/11/15 10:32:32;;;;;;;19.33;17.35;;;12.90;99.90;;;;;;5090560;28;20497;-89
2022/11/15 10:34:58;;;;;;;13.98;8.98;;;13.10;99.90;;;;;;5092355;28;20031;-89
2022/11/15 10:37:31;;;;;;;14.13;8.82;;;13.00;99.90;;;;;;5109420;28;20047;-89
2022/11/15 10:40:34;;;;;;;14.00;7.43;;;13.00;99.90;;;;;;5109002;28;20096;-89
2022/11/15 10:43:13;;;;;;;13.70;7.70;;;12.90;99.90;;;;;;5092005;28;20055;-89
2022/11/15 10:45:38;;;;;;;12.52;7.50;;;13.00;99.90;;;;;;5108376;28;20039;-88
2022/11/15 10:48:13;;;;;;;12.15;7.00;;;12.90;99.90;;;;;;5108728;28;20452;-89
2022/11/15 10:50:41;;;;;;;13.57;7.40;;;12.90;99.90;;;;;;5107834;28;20511;-89
2022/11/15 10:53:41;;;;;;;14.75;11.10;;;13.00;99.90;;;;;;5107809;28;20043;-89
2022/11/15 10:56:11;;;;;;;13.07;7.32;;;13.10;99.90;;;;;;5091873;28;20560;-90
2022/11/15 10:58:51;;;;;;;12.07;6.30;;;13.20;99.90;;;;;;5109253;28;20044;-89
2022/11/15 11:01:23;;;;;;;11.85;9.77;;;13.20;99.90;;;;;;5092548;28;20122;-89
2022/11/15 11:03:59;;;;;;;11.85;6.22;;;13.30;99.90;;;;;;5091895;28;20476;-90
2022/11/15 11:06:25;;;;;;;9.93;5.20;;;13.30;99.90;;;;;;5112606;28;20047;-90
2022/11/15 11:09:03;;;;;;;10.50;4.85;;;13.30;99.90;;;;;;5094469;28;20081;-89
2022/11/15 11:11:46;;;;;;;11.27;7.72;;;13.30;99.90;;;;;;5093567;28;20035;-89
2022/11/15 11:14:19;;;;;;;10.45;5.60;;;13.40;99.90;;;;;;5102811;28;20037;-89
2022/11/15 11:16:51;;;;;;;10.52;5.07;;;13.50;99.90;;;;;;5112979;28;20137;-89
2022/11/15 11:19:42;;;;;;;9.43;5.13;;;13.50;99.90;;;;;;5111918;28;20106;-89
2022/11/15 11:22:30;;;;;;;10.13;4.78;;;13.50;99.90;;;;;;5095136;28;20055;-90
2022/11/15 11:25:32;;;;;;;12.07;6.90;;;13.60;99.90;;;;;;5111399;28;20142;-90
2022/11/15 11:28:37;;;;;;;10.40;4.32;;;13.70;99.90;;;;;;5112127;28;20073;-89
2022/11/15 11:31:47;;;;;;;9.85;4.32;;;13.80;99.90;;;;;;5094971;28;20055;-90
2022/11/15 11:34:38;;;;;;;9.50;4.65;;;13.90;99.90;;;;;;5069628;28;20036;-89
2022/11/15 11:37:23;;;;;;;9.65;5.90;;;14.00;99.90;;;;;;5087306;28;20035;-89
2022/11/15 11:40:30;;;;;;;8.85;4.10;;;14.20;99.90;;;;;;5095416;28;20031;-90
2022/11/15 11:43:23;;;;;;;7.72;3.67;;;14.20;99.90;;;;;;5084260;28;20051;-90
2022/11/15 11:46:27;;;;;;;9.02;5.50;;;14.20;99.90;;;;;;5112018;28;20577;-90
2022/11/15 11:49:10;;;;;;;10.63;5.75;;;14.30;99.90;;;;;;5070501;28;20064;-90
2022/11/15 11:52:02;;;;;;;10.05;3.45;;;14.30;99.90;;;;;;5088279;28;20032;-90
2022/11/15 11:54:50;;;;;;;9.05;4.05;;;14.30;99.90;;;;;;5074944;28;20039;-90
2022/11/15 11:57:28;;;;;;;8.32;4.07;;;14.20;99.90;;;;;;5112528;28;20090;-90
2022/11/15 12:00:02;;;;;;;8.45;4.30;;;14.30;99.90;;;;;;5112642;28;20404;-90
2022/11/15 12:02:31;;;;;;;8.18;4.10;;;14.40;99.90;;;;;;5088035;28;20520;-90
2022/11/15 12:05:13;;;;;;;9.75;3.58;;;14.60;99.90;;;;;;5110684;27;20047;-90
2022/11/15 12:07:40;;;;;;;7.32;3.50;;;14.90;99.90;;;;;;5107887;28;20042;-90
2022/11/15 12:10:33;;;;;;;9.60;3.85;;;15.10;99.90;;;;;;5088067;28;20024;-90
2022/11/15 12:13:08;;;;;;;9.07;2.58;;;15.30;99.90;;;;;;5076335;28;20051;-90
2022/11/15 12:16:05;;;;;;;7.32;3.60;;;15.50;99.90;;;;;;5072596;28;20040;-90
2022/11/15 12:18:30;;;;;;;9.40;3.65;;;15.70;99.90;;;;;;5090708;28;20405;-90
2022/11/15 12:20:58;;;;;;;8.25;2.85;;;16.00;99.90;;;;;;5092479;28;20527;-90
2022/11/15 12:23:47;;;;;;;8.43;3.50;;;16.40;99.90;;;;;;5090671;28;20039;-89
2022/11/15 12:26:23;;;;;;;7.47;2.95;;;16.70;99.90;;;;;;5090213;28;20052;-90
2022/11/15 12:29:00;;;;;;;11.93;2.88;;;16.80;99.90;;;;;;5088389;28;20039;-90
2022/11/15 12:31:34;;;;;;;8.05;3.03;;;17.10;99.90;;;;;;5088396;28;20043;-90
2022/11/15 12:34:05;;;;;;;8.30;3.10;;;17.70;99.90;;;;;;5090570;28;20066;-90
2022/11/15 12:36:42;;;;;;;7.05;3.10;;;18.20;99.50;;;;;;5076897;28;20040;-90
2022/11/15 12:39:12;;;;;;;8.32;2.72;;;19.10;95.90;;;;;;5091091;28;20097;-90
2022/11/15 12:41:43;;;;;;;7.63;2.78;;;20.10;94.20;;;;;;5099231;28;20580;-89
2022/11/15 12:44:33;;;;;;;6.88;2.22;;;20.60;85.50;;;;;;5111516;28;20040;-90
2022/11/15 12:47:00;;;;;;;6.15;2.05;;;20.20;80.10;;;;;;5110866;28;20043;-90
2022/11/15 12:49:42;;;;;;;6.10;2.00;;;19.50;80.80;;;;;;5110385;28;20509;-90
2022/11/15 12:52:09;;;;;;;6.15;1.98;;;18.70;81.50;;;;;;5109845;28;20036;-90
2022/11/15 12:54:40;;;;;;;5.30;1.95;;;18.30;84.50;;;;;;5098101;28;20082;-91
2022/11/15 12:57:06;;;;;;;7.15;1.65;;;18.70;89.60;;;;;;5090708;28;20039;-90
2022/11/15 12:59:55;;;;;;;6.00;2.15;;;19.30;83.30;;;;;;5089076;28;20083;-90
2022/11/15 13:02:32;;;;;;;6.60;2.13;;;19.70;80.70;;;;;;5108622;28;20676;-90
2022/11/15 13:05:22;;;;;;;6.95;2.15;;;20.50;77.20;;;;;;5109695;28;20047;-90